^^
Station Historical Data
Daily Summary for July 4, 2017 Units:  Metric    English   Both
« Previous Day
Next Day »
Daily Weekly Monthly Yearly Custom
  High: Low: Average:
Temperature: 22.4 °C 6.1 °C 10.9 °C
Dew Point: -1.7 °C -3.8 °C -2.8 °C
Humidity: 49% 20% 40%
Wind Speed: 19.5km/h 0km/h 2.6km/h
Wind Gust: 29km/h - -
Wind- - WNW
Pressure: 1024.6 hPa 1020.2 hPa -
Precipitation: 0 mm    
Historical Graphs
 
 
Tabular Data for July 4, 2017
Time Temperature Dew Point Pressure Wind Wind Speed Wind Gust Humidity Rainfall Rate (Hourly) solar Conditions
01:50 8.9 °C -2.1 °C 1022.2 hPa Calm     46% 0 mm 0.0 W/m2
02:00 8.7 °C -2.3 °C 1022.2 hPa Calm     46% 0 mm 0.0 W/m2
02:05 8.5 °C -2.5 °C 1022.2 hPa Calm     46% 0 mm 0.0 W/m2
02:10 8.1 °C -2.5 °C 1022.2 hPa Calm     47% 0 mm 0.0 W/m2
02:15 7.7 °C -2.9 °C 1022.2 hPa Calm     47% 0 mm 0.0 W/m2
02:20 7.3 °C -3 °C 1022.2 hPa Calm     48% 0 mm 0.0 W/m2
02:26 7.3 °C -2.7 °C 1021.9 hPa Calm     49% 0 mm 0.0 W/m2
02:36 7.8 °C -2.5 °C 1021.9 hPa Calm     48% 0 mm 0.0 W/m2
02:46 8.1 °C -2.8 °C 1022.2 hPa Calm     46% 0 mm 0.0 W/m2
02:51 8.1 °C -2.8 °C 1022.2 hPa Calm     46% 0 mm 0.0 W/m2
02:56 8 °C -2.9 °C 1022.2 hPa Calm     46% 0 mm 0.0 W/m2
03:01 8 °C -2.9 °C 1022.2 hPa Calm     46% 0 mm 0.0 W/m2
03:07 8.1 °C -2.8 °C 1022.2 hPa Calm     46% 0 mm 0.0 W/m2
03:12 8.2 °C -2.7 °C 1022.2 hPa Calm     46% 0 mm 0.0 W/m2
03:17 8.2 °C -2.7 °C 1022.2 hPa Calm     46% 0 mm 0.0 W/m2
03:22 8.2 °C -3 °C 1022.2 hPa Calm     45% 0 mm 0.0 W/m2
03:33 8.1 °C -3.1 °C 1022.2 hPa Calm     45% 0 mm 0.0 W/m2
03:43 7.7 °C -3.2 °C 1022.2 hPa Calm     46% 0 mm 0.0 W/m2
03:48 7.9 °C -3 °C 1022.2 hPa Calm     46% 0 mm 0.0 W/m2
03:58 8 °C -3.2 °C 1022.2 hPa Calm     45% 0 mm 0.0 W/m2
04:13 7.1 °C -3.5 °C 1022.2 hPa Calm     47% 0 mm 0.0 W/m2
04:19 6.9 °C -3.6 °C 1022.2 hPa Calm     47% 0 mm 0.0 W/m2
04:24 6.8 °C -3.5 °C 1022.2 hPa Calm     48% 0 mm 0.0 W/m2
04:29 6.6 °C -3.6 °C 1022.2 hPa Calm     48% 0 mm 0.0 W/m2
04:34 6.5 °C -3.7 °C 1022.6 hPa Calm     48% 0 mm 0.0 W/m2
04:40 6.4 °C -3.5 °C 1022.2 hPa Calm     49% 0 mm 0.0 W/m2
04:45 6.3 °C -3.6 °C 1022.6 hPa Calm     49% 0 mm 0.0 W/m2
04:51 6.1 °C -3.8 °C 1022.6 hPa Calm     49% 0 mm 0.0 W/m2
05:01 6.3 °C -3.6 °C 1022.6 hPa Calm     49% 0 mm 0.0 W/m2
05:06 6.6 °C -3.4 °C 1022.6 hPa Calm     49% 0 mm 0.0 W/m2
05:11 7 °C -3.3 °C 1022.6 hPa Calm     48% 0 mm 0.0 W/m2
05:16 7.2 °C -3.1 °C 1022.6 hPa Calm   6.4 km/h 48% 0 mm 0.0 W/m2
05:21 7.4 °C -3.2 °C 1022.6 hPa Calm   3.2 km/h 47% 0 mm 0.0 W/m2
05:31 7.8 °C -3.1 °C 1022.6 hPa SSW 3.2 km/h 8 km/h 46% 0 mm 0.0 W/m2
05:36 7.9 °C -3.3 °C 1022.6 hPa SSW 1.4 km/h 4.8 km/h 45% 0 mm 0.0 W/m2
05:42 7.8 °C -3.4 °C 1022.6 hPa Calm   4.8 km/h 45% 0 mm 0.0 W/m2
05:47 7.7 °C -3.2 °C 1022.6 hPa Calm   3.2 km/h 46% 0 mm 0.0 W/m2
05:57 7.4 °C -2.9 °C 1022.6 hPa Calm   1.6 km/h 48% 0 mm 0.0 W/m2
06:12 7.3 °C -3.3 °C 1022.9 hPa Calm   1.6 km/h 47% 0 mm 0.0 W/m2
06:17 7.3 °C -3.3 °C 1022.9 hPa SSW 1.4 km/h 1.6 km/h 47% 0 mm 0.0 W/m2
06:23 7.5 °C -3.1 °C 1022.9 hPa Calm   3.2 km/h 47% 0 mm 0.0 W/m2
06:50 7.8 °C -3.1 °C 1023.2 hPa Calm     46% 0 mm 7.0 W/m2
07:00 7.6 °C -3.3 °C 1023.2 hPa Calm     46% 0 mm 12.0 W/m2
07:04 7.3 °C -3.6 °C 1023.2 hPa Calm     46% 0 mm 12.0 W/m2
07:15 6.9 °C -3.4 °C 1023.2 hPa Calm     48% 0 mm 16.0 W/m2
07:25 7.9 °C -2.7 °C 1023.6 hPa Calm   8 km/h 47% 0 mm 65.0 W/m2
07:44 10.4 °C -2.3 °C 1023.6 hPa SW 3.2 km/h 8 km/h 41% 0 mm 123.0 W/m2
07:55 11.2 °C -2.3 °C 1023.9 hPa SW 6.4 km/h 8 km/h 39% 0 mm 162.0 W/m2
08:06 11.7 °C -2.2 °C 1023.9 hPa Calm   6.4 km/h 38% 0 mm 218.0 W/m2
08:16 12.2 °C -2.4 °C 1024.3 hPa Calm   9.7 km/h 36% 0 mm 248.0 W/m2
08:26 12.5 °C -2.2 °C 1024.3 hPa SW 6.4 km/h 8 km/h 36% 0 mm 278.0 W/m2
08:31 12.7 °C -2.4 °C 1024.3 hPa SW 7.9 km/h 12.9 km/h 35% 0 mm 290.0 W/m2
08:36 12.8 °C -2.3 °C 1024.3 hPa SW 9.7 km/h 12.9 km/h 35% 0 mm 304.0 W/m2
08:41 12.9 °C -2.6 °C 1024.6 hPa SW 4.7 km/h 14.5 km/h 34% 0 mm 315.0 W/m2
08:46 12.9 °C -2.6 °C 1024.6 hPa SW 9.7 km/h 17.7 km/h 34% 0 mm 329.0 W/m2
11:22 18.9 °C -2.1 °C 1023.2 hPa NNW 11.1 km/h 22.5 km/h 24% 0 mm 585.0 W/m2
11:37 19.6 °C -2.1 °C 1023.2 hPa NNW 9.7 km/h 20.9 km/h 23% 0 mm 594.0 W/m2
11:52 20.2 °C -2.2 °C 1022.6 hPa NNW 17.7 km/h 22.5 km/h 22% 0 mm 598.0 W/m2
12:05 20.4 °C -2 °C 1022.6 hPa Calm   14.5 km/h 22% 0 mm 594.0 W/m2
12:18 20.7 °C -2.4 °C 1022.2 hPa NNW 7.9 km/h 20.9 km/h 21% 0 mm 592.0 W/m2
12:32 21.1 °C -2.7 °C 1021.9 hPa NNW 19.5 km/h 20.9 km/h 20% 0 mm 584.0 W/m2
12:42 21.3 °C -2.6 °C 1021.6 hPa NNW 7.9 km/h 20.9 km/h 20% 0 mm 578.0 W/m2
12:54 21.4 °C -2.5 °C 1021.2 hPa NNW 7.9 km/h 14.5 km/h 20% 0 mm 571.0 W/m2
13:03 21.6 °C -2.3 °C 1020.9 hPa North 13 km/h 29 km/h 20% 0 mm 554.0 W/m2
13:18 21.4 °C -2.5 °C 1020.5 hPa North 9.7 km/h 19.3 km/h 20% 0 mm 536.0 W/m2
13:33 21.7 °C -2.2 °C 1020.5 hPa North 11.1 km/h 17.7 km/h 20% 0 mm 522.0 W/m2
13:45 22.2 °C -1.8 °C 1020.2 hPa North 1.4 km/h 14.5 km/h 20% 0 mm 499.0 W/m2
13:48 22.2 °C -1.8 °C 1020.2 hPa Calm   17.7 km/h 20% 0 mm 489.0 W/m2
13:54 22.4 °C -1.7 °C 1020.2 hPa North 7.9 km/h 20.9 km/h 20% 0 mm 480.0 W/m2
Canyon Roadhouse, Fishriver Canyon, Namibia
Compliments of Weather Underground - 2 mb